Time;durP1;ratioP1;P1;durP2;ratioP2;P2;SDS_P1;SDS_P2;PMS_P1;PMS_P2;Temp;Humidity;BMP_temperature;BMP_pressure;BME280_temperature;BME280_humidity;BME280_pressure;Samples;Min_cycle;Max_cycle;Signal;HPM_P1;HPM_P2
2023/12/02 00:07:52;;;;;;;25.35;11.38;;;-0.20;1.00;;;;;;20620604;28;20061;-81
2023/12/02 00:17:56;;;;;;;;;;;-0.20;1.00;;;;;;20569364;28;20070;-87
2023/12/02 00:27:57;;;;;;;27.73;12.00;;;-0.20;1.00;;;;;;20520074;28;20394;-81
2023/12/02 00:37:57;;;;;;;29.02;12.48;;;-0.10;4.00;;;;;;20529449;28;20385;-85
2023/12/02 00:47:58;;;;;;;31.92;11.55;;;-0.10;1.00;;;;;;20504881;28;20345;-86
2023/12/02 00:57:59;;;;;;;29.17;11.43;;;-0.10;1.00;;;;;;20500117;28;20027;-82
2023/12/02 01:08:00;;;;;;;29.33;11.63;;;-0.20;1.00;;;;;;20538089;28;20748;-82
2023/12/02 01:18:00;;;;;;;31.02;11.68;;;-0.20;1.70;;;;;;20525078;28;20485;-83
2023/12/02 01:28:02;;;;;;;30.92;12.85;;;-0.20;1.20;;;;;;20502090;28;20121;-83
2023/12/02 01:38:07;;;;;;;32.28;12.52;;;-0.20;7.50;;;;;;20539454;28;20114;-87
2023/12/02 01:48:11;;;;;;;32.60;12.52;;;-0.30;6.70;;;;;;20563271;28;20055;-86
2023/12/02 01:58:16;;;;;;;30.40;12.18;;;-0.30;5.30;;;;;;20577132;28;20532;-86
2023/12/02 02:08:22;;;;;;;28.15;12.15;;;-0.40;4.40;;;;;;20534923;28;20043;-86
2023/12/02 02:18:23;;;;;;;;;;;-0.40;7.90;;;;;;20498202;28;20039;-87
2023/12/02 02:28:30;;;;;;;35.78;13.20;;;-0.40;12.60;;;;;;20551773;28;19918;-88
2023/12/02 02:38:34;;;;;;;34.00;13.77;;;-0.40;12.40;;;;;;20557129;28;20086;-84
2023/12/02 02:48:35;;;;;;;35.17;13.27;;;-0.50;14.80;;;;;;20516471;28;20074;-83
2023/12/02 02:58:36;;;;;;;32.55;12.95;;;-0.60;14.10;;;;;;20514603;28;20043;-84
2023/12/02 03:08:37;;;;;;;30.60;12.98;;;-0.70;14.60;;;;;;20522152;28;20175;-82
2023/12/02 03:18:38;;;;;;;30.30;11.32;;;-0.80;18.50;;;;;;20535313;28;20118;-84
2023/12/02 03:28:41;;;;;;;32.47;12.70;;;-0.90;16.50;;;;;;20528378;28;20046;-85
2023/12/02 03:38:42;;;;;;;33.13;12.98;;;-1.00;18.70;;;;;;20504449;28;20391;-84
2023/12/02 03:48:49;;;;;;;39.53;13.93;;;-0.90;18.30;;;;;;20520918;28;20480;-85
2023/12/02 03:58:58;;;;;;;38.70;13.50;;;-0.90;21.10;;;;;;20525523;28;20122;-88
2023/12/02 04:08:59;;;;;;;37.60;13.93;;;-0.80;15.50;;;;;;20534808;28;20504;-87
2023/12/02 04:19:00;;;;;;;35.65;14.30;;;-1.00;13.70;;;;;;20525763;28;20034;-88
2023/12/02 04:29:13;;;;;;;38.17;12.95;;;-1.00;13.50;;;;;;20503489;28;20225;-88
2023/12/02 04:39:14;;;;;;;40.22;14.38;;;-1.00;15.70;;;;;;20490580;28;20062;-86
2023/12/02 04:49:18;;;;;;;37.35;14.05;;;-0.90;15.10;;;;;;20489376;28;20047;-86
2023/12/02 04:59:19;;;;;;;37.78;13.73;;;-1.10;17.10;;;;;;20455143;28;20083;-86
2023/12/02 05:09:25;;;;;;;40.92;13.20;;;-1.20;19.20;;;;;;20490261;28;20041;-86
2023/12/02 05:19:31;;;;;;;39.38;14.02;;;-1.20;23.50;;;;;;20509003;28;20038;-88
2023/12/02 05:29:40;;;;;;;36.80;13.05;;;-1.10;21.70;;;;;;20525013;28;20118;-87
2023/12/02 05:39:49;;;;;;;42.45;14.45;;;-1.10;25.20;;;;;;20544198;28;20044;-86
2023/12/02 05:50:00;;;;;;;36.45;13.52;;;-1.10;22.10;;;;;;20489847;28;20457;-86
2023/12/02 06:00:06;;;;;;;42.17;14.57;;;-1.10;19.50;;;;;;20505850;28;20047;-85
2023/12/02 06:10:07;;;;;;;;;;;-1.20;24.80;;;;;;20515204;28;20066;-86
2023/12/02 06:20:10;;;;;;;35.88;13.15;;;-1.20;27.90;;;;;;20519395;28;20088;-84
2023/12/02 06:30:17;;;;;;;36.33;13.75;;;-1.10;20.40;;;;;;20524864;28;20043;-84
2023/12/02 06:40:32;;;;;;;36.40;13.88;;;-1.00;25.60;;;;;;20517205;28;20039;-85
2023/12/02 06:50:53;;;;;;;39.72;13.02;;;-1.10;26.10;;;;;;20513384;28;20449;-84
2023/12/02 07:00:54;;;;;;;33.55;13.55;;;-1.10;24.90;;;;;;20489909;28;20150;-85
2023/12/02 07:10:58;;;;;;;40.22;14.13;;;-1.10;25.00;;;;;;20516810;28;20047;-85
2023/12/02 07:21:01;;;;;;;60.28;22.40;;;-1.10;21.30;;;;;;20527803;28;20039;-85
2023/12/02 07:31:05;;;;;;;60.00;21.30;;;-1.10;17.10;;;;;;20540179;28;20049;-85
2023/12/02 07:41:10;;;;;;;52.90;18.17;;;-1.20;17.40;;;;;;20534553;28;20560;-86
2023/12/02 07:51:14;;;;;;;41.60;15.57;;;-1.10;21.50;;;;;;20519757;28;20039;-86
2023/12/02 08:01:14;;;;;;;38.65;15.82;;;-1.10;13.90;;;;;;20519083;28;20043;-84
2023/12/02 08:11:21;;;;;;;38.03;14.93;;;-1.10;20.50;;;;;;20523349;28;20134;-84
2023/12/02 08:21:27;;;;;;;43.08;14.88;;;-1.20;26.70;;;;;;20572571;28;20186;-83
2023/12/02 08:31:33;;;;;;;45.33;16.48;;;-1.10;32.90;;;;;;20519049;28;20046;-83
2023/12/02 08:41:43;;;;;;;43.85;17.00;;;-0.90;34.30;;;;;;20522653;28;20328;-82
2023/12/02 08:51:44;;;;;;;50.58;15.95;;;-0.70;28.00;;;;;;20562947;28;20252;-81
2023/12/02 09:01:59;;;;;;;51.05;18.38;;;-0.60;33.90;;;;;;20611617;28;20051;-81
2023/12/02 09:12:06;;;;;;;43.93;16.93;;;-0.50;31.50;;;;;;20573133;28;20051;-81
2023/12/02 09:22:12;;;;;;;49.75;18.25;;;-0.30;35.20;;;;;;20605120;28;20071;-84
2023/12/02 09:32:31;;;;;;;62.30;25.05;;;-0.20;30.20;;;;;;20521273;28;20154;-84
2023/12/02 09:42:32;;;;;;;71.35;27.52;;;-0.10;38.60;;;;;;20524940;28;20042;-89
2023/12/02 09:52:43;;;;;;;51.50;18.20;;;0.00;54.90;;;;;;20525150;28;20035;-89
2023/12/02 10:03:07;;;;;;;50.72;19.02;;;0.20;28.70;;;;;;20483097;28;20065;-86
2023/12/02 10:13:18;;;;;;;48.78;19.25;;;0.30;23.30;;;;;;20497727;28;20497;-83
2023/12/02 10:24:10;;;;;;;51.88;19.17;;;0.40;22.70;;;;;;20491525;28;20038;-86
2023/12/02 10:34:22;;;;;;;47.35;17.27;;;0.60;19.00;;;;;;20521881;28;20086;-86
2023/12/02 10:44:56;;;;;;;50.40;18.15;;;0.70;16.00;;;;;;20514854;28;20098;-86
2023/12/02 10:55:08;;;;;;;49.03;17.83;;;0.80;13.00;;;;;;20538626;28;20551;-85
2023/12/02 11:05:22;;;;;;;47.63;18.30;;;1.10;9.40;;;;;;20475843;28;20049;-84
2023/12/02 11:15:24;;;;;;;48.63;18.65;;;0.90;12.10;;;;;;20505825;28;20058;-87
2023/12/02 11:26:26;;;;;;;51.03;19.30;;;1.60;15.20;;;;;;20486439;28;20040;-86
2023/12/02 11:36:36;;;;;;;48.75;18.77;;;2.30;4.60;;;;;;20514355;28;20042;-83
2023/12/02 11:47:13;;;;;;;44.72;20.17;;;3.20;1.00;;;;;;20447651;28;20054;-84
2023/12/02 11:57:35;;;;;;;43.93;18.20;;;3.80;1.00;;;;;;20460895;28;20039;-84
2023/12/02 12:08:14;;;;;;;41.08;17.25;;;3.70;1.00;;;;;;20461629;28;20051;-82
2023/12/02 12:18:20;;;;;;;37.58;17.08;;;3.10;1.00;;;;;;20391642;28;20050;-84
2023/12/02 12:28:24;;;;;;;43.38;17.50;;;2.70;1.00;;;;;;20421665;28;20049;-84
2023/12/02 12:38:28;;;;;;;45.00;18.63;;;2.60;1.00;;;;;;20453268;28;20478;-83
2023/12/02 12:48:29;;;;;;;45.08;19.45;;;2.60;1.00;;;;;;20482902;28;20069;-85
2023/12/02 12:58:33;;;;;;;45.50;18.92;;;2.60;1.00;;;;;;20534036;28;20031;-85
2023/12/02 13:08:39;;;;;;;52.22;20.30;;;2.70;1.00;;;;;;20531416;28;20089;-84
2023/12/02 13:18:43;;;;;;;47.17;19.70;;;2.80;1.00;;;;;;20465849;28;20042;-83
2023/12/02 13:28:45;;;;;;;109.05;37.53;;;2.80;1.00;;;;;;20521923;28;20111;-83
2023/12/02 13:39:05;;;;;;;42.78;17.52;;;2.80;4.00;;;;;;20525332;28;20054;-83
2023/12/02 13:49:45;;;;;;;49.13;21.08;;;2.80;11.40;;;;;;20487257;28;20046;-82
2023/12/02 13:59:47;;;;;;;46.97;21.67;;;2.90;6.40;;;;;;20469347;28;20050;-81
2023/12/02 14:09:52;;;;;;;124.43;48.47;;;2.90;8.80;;;;;;20515771;28;20067;-83
2023/12/02 14:20:16;;;;;;;60.20;27.20;;;2.80;14.10;;;;;;20520416;28;20042;-82
2023/12/02 14:31:18;;;;;;;48.50;21.20;;;2.70;20.20;;;;;;20498450;28;20047;-83
2023/12/02 14:41:47;;;;;;;68.45;30.88;;;2.50;19.90;;;;;;20464559;28;20039;-82
2023/12/02 14:51:48;;;;;;;57.25;23.95;;;2.50;28.70;;;;;;20473993;28;20047;-83
2023/12/02 15:01:55;;;;;;;52.88;21.88;;;2.40;42.60;;;;;;20534371;28;20035;-81
2023/12/02 15:12:04;;;;;;;56.78;22.63;;;2.30;55.80;;;;;;20529261;28;20043;-84
2023/12/02 15:22:18;;;;;;;56.63;23.80;;;2.30;76.40;;;;;;20517873;28;20394;-84
2023/12/02 15:32:18;;;;;;;56.97;22.17;;;2.20;80.30;;;;;;20511816;28;20046;-82
2023/12/02 15:42:19;;;;;;;58.92;23.15;;;2.00;77.90;;;;;;20480041;28;20047;-83
2023/12/02 15:52:23;;;;;;;66.20;25.17;;;1.90;91.00;;;;;;20501751;28;20054;-87
2023/12/02 16:02:24;;;;;;;59.20;24.08;;;1.90;94.70;;;;;;20504559;28;20145;-81
2023/12/02 16:12:25;;;;;;;57.60;23.02;;;2.00;95.60;;;;;;20517348;28;20042;-84
2023/12/02 16:22:26;;;;;;;57.88;23.08;;;1.90;98.50;;;;;;20506717;28;20043;-83
2023/12/02 16:32:28;;;;;;;55.03;21.52;;;2.00;99.90;;;;;;20504647;28;20059;-86
2023/12/02 16:42:29;;;;;;;52.28;22.60;;;2.00;99.90;;;;;;20487777;28;20051;-83
2023/12/02 16:52:29;;;;;;;58.80;25.40;;;2.20;99.90;;;;;;20512507;28;20039;-85
2023/12/02 17:02:35;;;;;;;58.78;24.02;;;2.20;99.90;;;;;;20494287;28;20050;-85
2023/12/02 17:12:36;;;;;;;59.28;26.70;;;2.20;99.90;;;;;;20518378;28;20038;-82
2023/12/02 17:33:37;;;;;;;51.78;22.50;;;2.30;99.90;;;;;;20261161;28;20539;-84
2023/12/02 17:43:38;;;;;;;57.38;23.42;;;2.30;99.90;;;;;;20500827;28;20820;-83
2023/12/02 17:53:38;;;;;;;87.67;37.17;;;2.30;99.90;;;;;;20456098;28;20072;-82
2023/12/02 18:03:42;;;;;;;59.00;25.00;;;2.40;99.90;;;;;;20397919;28;20492;-83
2023/12/02 18:13:42;;;;;;;59.17;22.88;;;2.40;99.90;;;;;;20433804;28;20038;-81
2023/12/02 18:23:43;;;;;;;48.03;20.83;;;2.50;99.90;;;;;;20532847;28;20158;-83
2023/12/02 18:33:44;;;;;;;46.55;19.75;;;2.40;99.90;;;;;;20535777;28;20398;-82
2023/12/02 18:43:51;;;;;;;55.78;23.15;;;2.40;99.90;;;;;;20482606;28;20051;-84
2023/12/02 18:53:54;;;;;;;55.17;21.80;;;2.40;99.90;;;;;;20568292;28;20043;-80
2023/12/02 19:03:58;;;;;;;55.85;24.55;;;2.20;99.90;;;;;;20540246;28;20027;-78
2023/12/02 19:13:59;;;;;;;44.00;18.13;;;2.20;99.90;;;;;;20526043;28;20048;-85
2023/12/02 19:24:00;;;;;;;37.13;15.68;;;2.30;99.90;;;;;;20479243;28;20039;-82
2023/12/02 19:34:00;;;;;;;24.10;12.43;;;2.30;99.90;;;;;;20451901;28;20576;-83
2023/12/02 19:44:10;;;;;;;21.83;10.63;;;2.40;99.90;;;;;;20448026;28;20574;-83
2023/12/02 19:54:10;;;;;;;25.48;11.43;;;2.50;99.90;;;;;;20422818;28;20043;-82
2023/12/02 20:04:11;;;;;;;25.25;12.15;;;2.30;99.90;;;;;;20425281;28;20047;-84
2023/12/02 20:14:30;;;;;;;36.92;16.17;;;2.30;99.90;;;;;;20437556;28;20231;-83
2023/12/02 20:24:31;;;;;;;25.05;11.35;;;2.30;99.90;;;;;;20440004;28;20047;-80
2023/12/02 20:34:32;;;;;;;20.40;10.60;;;2.20;99.90;;;;;;20449094;28;20039;-80
2023/12/02 20:44:33;;;;;;;26.95;14.25;;;2.10;99.90;;;;;;20439643;28;20035;-78
2023/12/02 20:54:34;;;;;;;19.13;9.23;;;1.90;99.90;;;;;;20470478;28;20434;-79
2023/12/02 21:04:40;;;;;;;23.02;10.73;;;1.80;99.90;;;;;;20435315;28;20500;-81
2023/12/02 21:14:41;;;;;;;24.33;11.23;;;1.80;99.90;;;;;;20445830;28;20040;-78
2023/12/02 21:24:46;;;;;;;29.42;13.95;;;1.80;99.90;;;;;;20464352;28;20047;-84
2023/12/02 21:34:54;;;;;;;46.97;17.38;;;2.00;99.90;;;;;;20477391;28;20302;-82
2023/12/02 21:44:57;;;;;;;48.17;19.80;;;2.10;99.90;;;;;;20519402;28;20043;-83
2023/12/02 21:55:02;;;;;;;55.33;20.80;;;2.20;99.90;;;;;;20525198;28;20081;-84
2023/12/02 22:05:12;;;;;;;50.83;21.35;;;2.20;99.90;;;;;;20520651;28;20077;-85
2023/12/02 22:15:20;;;;;;;63.13;22.98;;;2.20;99.90;;;;;;20532432;28;20051;-82
2023/12/02 22:25:27;;;;;;;53.38;19.88;;;2.30;99.90;;;;;;20535979;28;20103;-83
2023/12/02 22:35:40;;;;;;;50.63;19.90;;;2.30;99.90;;;;;;20518705;28;20526;-82
2023/12/02 22:45:41;;;;;;;46.65;17.83;;;2.40;99.90;;;;;;20457892;28;20119;-80
2023/12/02 22:56:01;;;;;;;39.08;17.05;;;2.40;99.90;;;;;;20392795;29;20042;-80
2023/12/02 23:06:03;;;;;;;37.03;14.55;;;2.30;99.90;;;;;;20366484;28;20505;-81
2023/12/02 23:16:38;;;;;;;35.47;13.68;;;2.40;99.90;;;;;;20361845;29;20123;-79
2023/12/02 23:26:45;;;;;;;34.55;14.40;;;2.30;99.90;;;;;;20414960;28;20036;-80
2023/12/02 23:36:46;;;;;;;;;;;2.40;99.90;;;;;;20456967;28;20108;-80
2023/12/02 23:46:47;;;;;;;35.25;14.68;;;2.50;99.90;;;;;;20490033;28;19926;-83
2023/12/02 23:56:53;;;;;;;32.95;12.77;;;2.50;99.90;;;;;;20519490;28;20133;-83
